Observations for GUIDONIA IT-AFB, Italy (LIRG)

LIRG 191313Z 26006KT 190V320 9999 TS FEW020CB SCT025 26/15 Q1014
LIRG 191313Z 26006KT 190V320 9999 TS FEW020CB SCT025 26/15 Q1014 RMK BKN MON NELIB NC VIS MIN 9999 BLU
LIRG 191255Z 24004KT 160V310 9999 SCT020 27/14 Q1014
LIRG 191255Z 24004KT 160V310 9999 SCT020 27/14 Q1014 RMK BKN SCT100 MON NE LIB NC VIS MIN 9999 BLU
LIRG 191155Z 24003KT 9999 SCT020 27/16 Q1014
LIRG 191155Z 24003KT 9999 SCT020 27/16 Q1014 RMK BKN SCT100 MON NE LIB NC VIS MIN 9999 BLU
LIRG 191055Z 21005KT 9999 SCT035 26/16 Q1015
LIRG 191055Z 21005KT 9999 SCT035 26/16 Q1015 RMK BKN SCT100 MON NE LIB VIS MIN 9999 BLU
LIRG 190955Z 23004KT 9999 FEW030 25/17 Q1016
LIRG 190955Z 23004KT 9999 FEW030 25/17 Q1016 RMK BKN SCT100 MON NE LIB VIS MIN 9999 BLU
LIRG 190855Z VRB02KT 9999 FEW030 23/17 Q1016
LIRG 190855Z VRB02KT 9999 FEW030 23/17 Q1016 RMK BKN SCT100 MON NE LIB VIS MIN 9999 BLU
LIRG 190755Z 18003KT 9999 FEW030 21/17 Q1016
LIRG 190755Z 18003KT 9999 FEW030 21/17 Q1016 RMK BKN SCT100 MON NE LIB NC VIS MIN 9999 BLU
LIRG 190655Z 09004KT 9999 FEW030 20/17 Q1016
LIRG 190655Z 09004KT 9999 FEW030 20/17 Q1016 RMK BKN SCT100 MON NE LIB NC VIS MIN 9999 BLU
LIRG 190555Z VRB02KT 9999 FEW030 18/17 Q1015
LIRG 190555Z VRB02KT 9999 FEW030 18/17 Q1015 RMK SCT SCT070 MON NE LIB VIS MIN 9999 BLU
LIRG 190455Z 09003KT 9999 SCT030 18/17 Q1015
LIRG 190455Z 09003KT 9999 SCT030 18/17 Q1015 RMK BKN SCT070 MON NE LIB VIS MIN 9999 BLU
LIRG 181755Z 24005KT 9999 FEW035 24/19 Q1016
LIRG 181755Z 24005KT 9999 FEW035 24/19 Q1016 RMK BKN SCT090 MON NE LIB NC VIS MIN 9999 BLU
LIRG 181655Z 23005KT 9999 SCT035 25/18 Q1016
LIRG 181655Z 23005KT 9999 SCT035 25/18 Q1016 RMK BKN SCT090 MON NE LIB NC VIS MIN 9999 BLU
LIRG 181555Z 22007KT 9999 FEW035 26/18 Q1015
LIRG 181555Z 22007KT 9999 FEW035 26/18 Q1015 RMK BKN SCT200 MON NE LIB NC VIS MIN 9999 BLU
LIRG 181455Z 22008KT 9999 SCT035 26/17 Q1015
LIRG 181455Z 22008KT 9999 SCT035 26/17 Q1015 RMK BKN SCT200 MON NE LIB NC VIS MIN 9999 BLU
LIRG 181355Z 23011KT 9999 FEW035 29/18 Q1015
LIRG 181355Z 23011KT 9999 FEW035 29/18 Q1015 RMK BKN SCT200 MON NE LIB NC VIS MIN 9999 BLU
LIRG 181255Z 28004KT 9999 FEW035 29/15 Q1016
LIRG 181255Z 28004KT 9999 FEW035 29/15 Q1016 RMK FEW MON NE LIB NC VIS MIN 9999BLU